sensor_id;sensor_type;location;lat;lon;timestamp;P1;durP1;ratioP1;P2;durP2;ratioP2
18669;SDS011;9464;44.918;9.670;2022-12-18T00:00:03;49.13;;;21.83;;
18669;SDS011;9464;44.918;9.670;2022-12-18T00:02:33;43.17;;;20.30;;
18669;SDS011;9464;44.918;9.670;2022-12-18T00:05:02;38.57;;;20.47;;
18669;SDS011;9464;44.918;9.670;2022-12-18T00:07:30;50.87;;;21.43;;
18669;SDS011;9464;44.918;9.670;2022-12-18T00:09:58;41.00;;;20.27;;
18669;SDS011;9464;44.918;9.670;2022-12-18T00:12:27;47.80;;;20.90;;
18669;SDS011;9464;44.918;9.670;2022-12-18T00:14:55;41.47;;;20.90;;
18669;SDS011;9464;44.918;9.670;2022-12-18T00:17:24;39.27;;;20.40;;
18669;SDS011;9464;44.918;9.670;2022-12-18T00:19:53;49.73;;;22.30;;
18669;SDS011;9464;44.918;9.670;2022-12-18T00:22:22;45.37;;;21.77;;
18669;SDS011;9464;44.918;9.670;2022-12-18T00:24:50;40.10;;;20.27;;
18669;SDS011;9464;44.918;9.670;2022-12-18T00:27:19;47.53;;;21.97;;
18669;SDS011;9464;44.918;9.670;2022-12-18T00:29:47;49.87;;;20.77;;
18669;SDS011;9464;44.918;9.670;2022-12-18T00:32:16;44.60;;;20.13;;
18669;SDS011;9464;44.918;9.670;2022-12-18T00:34:44;51.03;;;20.53;;
18669;SDS011;9464;44.918;9.670;2022-12-18T00:37:14;45.40;;;20.50;;
18669;SDS011;9464;44.918;9.670;2022-12-18T00:39:47;45.27;;;21.93;;
18669;SDS011;9464;44.918;9.670;2022-12-18T00:42:16;41.30;;;20.07;;
18669;SDS011;9464;44.918;9.670;2022-12-18T00:45:02;42.37;;;20.60;;
18669;SDS011;9464;44.918;9.670;2022-12-18T00:47:38;43.50;;;20.43;;
18669;SDS011;9464;44.918;9.670;2022-12-18T00:50:07;44.73;;;20.37;;
18669;SDS011;9464;44.918;9.670;2022-12-18T00:52:37;39.43;;;19.53;;
18669;SDS011;9464;44.918;9.670;2022-12-18T00:55:05;44.50;;;19.07;;
18669;SDS011;9464;44.918;9.670;2022-12-18T00:57:34;40.57;;;19.73;;
18669;SDS011;9464;44.918;9.670;2022-12-18T01:00:03;41.37;;;19.17;;
18669;SDS011;9464;44.918;9.670;2022-12-18T01:02:31;54.83;;;20.83;;
18669;SDS011;9464;44.918;9.670;2022-12-18T01:05:00;41.20;;;19.23;;
18669;SDS011;9464;44.918;9.670;2022-12-18T01:07:28;42.93;;;19.83;;
18669;SDS011;9464;44.918;9.670;2022-12-18T01:09:58;36.57;;;19.23;;
18669;SDS011;9464;44.918;9.670;2022-12-18T01:12:27;36.57;;;18.50;;
18669;SDS011;9464;44.918;9.670;2022-12-18T01:14:55;39.20;;;17.13;;
18669;SDS011;9464;44.918;9.670;2022-12-18T01:17:23;44.77;;;18.90;;
18669;SDS011;9464;44.918;9.670;2022-12-18T01:19:52;45.83;;;18.20;;
18669;SDS011;9464;44.918;9.670;2022-12-18T01:22:20;41.07;;;19.87;;
18669;SDS011;9464;44.918;9.670;2022-12-18T01:24:49;36.37;;;18.43;;
18669;SDS011;9464;44.918;9.670;2022-12-18T01:27:18;47.53;;;20.20;;
18669;SDS011;9464;44.918;9.670;2022-12-18T01:29:47;40.37;;;20.87;;
18669;SDS011;9464;44.918;9.670;2022-12-18T01:32:15;50.37;;;20.73;;
18669;SDS011;9464;44.918;9.670;2022-12-18T01:34:44;46.73;;;20.57;;
18669;SDS011;9464;44.918;9.670;2022-12-18T01:37:12;47.50;;;20.83;;
18669;SDS011;9464;44.918;9.670;2022-12-18T01:39:41;45.07;;;20.97;;
18669;SDS011;9464;44.918;9.670;2022-12-18T01:42:10;37.57;;;19.97;;
18669;SDS011;9464;44.918;9.670;2022-12-18T01:47:32;40.30;;;21.77;;
18669;SDS011;9464;44.918;9.670;2022-12-18T01:50:03;40.40;;;20.20;;
18669;SDS011;9464;44.918;9.670;2022-12-18T01:52:32;38.90;;;20.17;;
18669;SDS011;9464;44.918;9.670;2022-12-18T01:55:01;45.97;;;20.47;;
18669;SDS011;9464;44.918;9.670;2022-12-18T01:57:30;39.10;;;19.23;;
18669;SDS011;9464;44.918;9.670;2022-12-18T01:59:59;42.67;;;21.10;;
18669;SDS011;9464;44.918;9.670;2022-12-18T02:02:28;41.93;;;20.23;;
18669;SDS011;9464;44.918;9.670;2022-12-18T02:04:59;44.13;;;20.60;;
18669;SDS011;9464;44.918;9.670;2022-12-18T02:07:30;35.73;;;20.63;;
18669;SDS011;9464;44.918;9.670;2022-12-18T02:10:02;41.00;;;19.27;;
18669;SDS011;9464;44.918;9.670;2022-12-18T02:12:33;40.43;;;21.17;;
18669;SDS011;9464;44.918;9.670;2022-12-18T02:15:05;42.20;;;20.27;;
18669;SDS011;9464;44.918;9.670;2022-12-18T02:17:35;68.53;;;19.93;;
18669;SDS011;9464;44.918;9.670;2022-12-18T02:20:08;46.97;;;19.53;;
18669;SDS011;9464;44.918;9.670;2022-12-18T02:22:43;46.43;;;21.17;;
18669;SDS011;9464;44.918;9.670;2022-12-18T02:25:18;46.00;;;20.50;;
18669;SDS011;9464;44.918;9.670;2022-12-18T02:27:54;37.20;;;18.97;;
18669;SDS011;9464;44.918;9.670;2022-12-18T02:30:24;53.87;;;21.70;;
18669;SDS011;9464;44.918;9.670;2022-12-18T02:32:52;50.77;;;20.93;;
18669;SDS011;9464;44.918;9.670;2022-12-18T02:35:23;45.43;;;20.93;;
18669;SDS011;9464;44.918;9.670;2022-12-18T02:37:52;40.00;;;20.23;;
18669;SDS011;9464;44.918;9.670;2022-12-18T02:40:22;51.57;;;21.00;;
18669;SDS011;9464;44.918;9.670;2022-12-18T02:42:51;44.63;;;21.27;;
18669;SDS011;9464;44.918;9.670;2022-12-18T02:45:21;49.53;;;20.50;;
18669;SDS011;9464;44.918;9.670;2022-12-18T02:47:49;44.03;;;21.87;;
18669;SDS011;9464;44.918;9.670;2022-12-18T02:50:19;47.50;;;20.53;;
18669;SDS011;9464;44.918;9.670;2022-12-18T02:52:55;44.83;;;20.73;;
18669;SDS011;9464;44.918;9.670;2022-12-18T02:55:29;47.70;;;22.27;;
18669;SDS011;9464;44.918;9.670;2022-12-18T02:58:01;49.00;;;20.97;;
18669;SDS011;9464;44.918;9.670;2022-12-18T03:00:35;50.67;;;20.83;;
18669;SDS011;9464;44.918;9.670;2022-12-18T03:03:06;44.47;;;19.93;;
18669;SDS011;9464;44.918;9.670;2022-12-18T03:05:36;33.70;;;17.10;;
18669;SDS011;9464;44.918;9.670;2022-12-18T03:08:07;34.27;;;17.37;;
18669;SDS011;9464;44.918;9.670;2022-12-18T03:10:38;35.33;;;18.97;;
18669;SDS011;9464;44.918;9.670;2022-12-18T03:13:09;35.27;;;18.33;;
18669;SDS011;9464;44.918;9.670;2022-12-18T03:15:42;36.80;;;17.63;;
18669;SDS011;9464;44.918;9.670;2022-12-18T03:18:12;42.07;;;19.20;;
18669;SDS011;9464;44.918;9.670;2022-12-18T03:20:43;41.27;;;19.50;;
18669;SDS011;9464;44.918;9.670;2022-12-18T03:23:13;36.07;;;17.23;;
18669;SDS011;9464;44.918;9.670;2022-12-18T03:25:44;35.20;;;17.70;;
18669;SDS011;9464;44.918;9.670;2022-12-18T03:28:12;36.33;;;17.67;;
18669;SDS011;9464;44.918;9.670;2022-12-18T03:30:43;46.93;;;18.27;;
18669;SDS011;9464;44.918;9.670;2022-12-18T03:33:13;38.87;;;17.20;;
18669;SDS011;9464;44.918;9.670;2022-12-18T03:35:46;39.43;;;19.00;;
18669;SDS011;9464;44.918;9.670;2022-12-18T03:38:14;38.13;;;18.40;;
18669;SDS011;9464;44.918;9.670;2022-12-18T03:40:45;48.20;;;17.50;;
18669;SDS011;9464;44.918;9.670;2022-12-18T03:43:20;38.33;;;18.13;;
18669;SDS011;9464;44.918;9.670;2022-12-18T03:45:55;41.97;;;17.03;;
18669;SDS011;9464;44.918;9.670;2022-12-18T03:48:26;35.80;;;16.93;;
18669;SDS011;9464;44.918;9.670;2022-12-18T03:50:57;35.47;;;18.07;;
18669;SDS011;9464;44.918;9.670;2022-12-18T03:53:29;41.27;;;17.73;;
18669;SDS011;9464;44.918;9.670;2022-12-18T03:56:00;38.60;;;17.10;;
18669;SDS011;9464;44.918;9.670;2022-12-18T03:58:30;32.77;;;16.17;;
18669;SDS011;9464;44.918;9.670;2022-12-18T04:01:01;40.47;;;18.13;;
18669;SDS011;9464;44.918;9.670;2022-12-18T04:03:30;41.93;;;17.60;;
18669;SDS011;9464;44.918;9.670;2022-12-18T04:06:02;38.37;;;15.77;;
18669;SDS011;9464;44.918;9.670;2022-12-18T04:08:31;37.40;;;16.43;;
18669;SDS011;9464;44.918;9.670;2022-12-18T04:11:01;40.73;;;17.47;;
18669;SDS011;9464;44.918;9.670;2022-12-18T04:13:32;39.83;;;17.57;;
18669;SDS011;9464;44.918;9.670;2022-12-18T04:16:03;42.03;;;17.50;;
18669;SDS011;9464;44.918;9.670;2022-12-18T04:18:31;47.90;;;17.57;;
18669;SDS011;9464;44.918;9.670;2022-12-18T04:21:00;32.83;;;16.07;;
18669;SDS011;9464;44.918;9.670;2022-12-18T04:23:28;42.93;;;18.10;;
18669;SDS011;9464;44.918;9.670;2022-12-18T04:25:56;50.00;;;17.17;;
18669;SDS011;9464;44.918;9.670;2022-12-18T04:28:25;34.37;;;16.20;;
18669;SDS011;9464;44.918;9.670;2022-12-18T04:30:53;39.97;;;18.20;;
18669;SDS011;9464;44.918;9.670;2022-12-18T04:33:23;47.20;;;17.90;;
18669;SDS011;9464;44.918;9.670;2022-12-18T04:35:52;40.77;;;17.43;;
18669;SDS011;9464;44.918;9.670;2022-12-18T04:38:20;40.73;;;18.03;;
18669;SDS011;9464;44.918;9.670;2022-12-18T04:40:49;47.27;;;18.27;;
18669;SDS011;9464;44.918;9.670;2022-12-18T04:43:17;47.00;;;18.10;;
18669;SDS011;9464;44.918;9.670;2022-12-18T04:45:46;47.40;;;17.40;;
18669;SDS011;9464;44.918;9.670;2022-12-18T04:48:14;56.73;;;19.43;;
18669;SDS011;9464;44.918;9.670;2022-12-18T04:50:44;44.40;;;17.57;;
18669;SDS011;9464;44.918;9.670;2022-12-18T04:53:12;48.53;;;16.97;;
18669;SDS011;9464;44.918;9.670;2022-12-18T04:55:41;54.57;;;20.07;;
18669;SDS011;9464;44.918;9.670;2022-12-18T04:58:09;71.97;;;18.37;;
18669;SDS011;9464;44.918;9.670;2022-12-18T05:00:38;52.50;;;17.30;;
18669;SDS011;9464;44.918;9.670;2022-12-18T05:03:06;51.33;;;17.37;;
18669;SDS011;9464;44.918;9.670;2022-12-18T05:05:35;45.90;;;17.60;;
18669;SDS011;9464;44.918;9.670;2022-12-18T05:08:05;51.53;;;16.97;;
18669;SDS011;9464;44.918;9.670;2022-12-18T05:10:33;53.77;;;18.27;;
18669;SDS011;9464;44.918;9.670;2022-12-18T05:13:03;51.60;;;17.70;;
18669;SDS011;9464;44.918;9.670;2022-12-18T05:15:32;49.83;;;17.13;;
18669;SDS011;9464;44.918;9.670;2022-12-18T05:18:01;44.27;;;18.00;;
18669;SDS011;9464;44.918;9.670;2022-12-18T05:20:30;51.80;;;17.80;;
18669;SDS011;9464;44.918;9.670;2022-12-18T05:22:59;44.87;;;17.80;;
18669;SDS011;9464;44.918;9.670;2022-12-18T05:25:29;38.63;;;18.07;;
18669;SDS011;9464;44.918;9.670;2022-12-18T05:27:57;49.37;;;18.73;;
18669;SDS011;9464;44.918;9.670;2022-12-18T05:30:25;49.70;;;17.80;;
18669;SDS011;9464;44.918;9.670;2022-12-18T05:32:54;37.80;;;19.27;;
18669;SDS011;9464;44.918;9.670;2022-12-18T05:35:23;44.40;;;19.77;;
18669;SDS011;9464;44.918;9.670;2022-12-18T05:37:51;52.00;;;18.60;;
18669;SDS011;9464;44.918;9.670;2022-12-18T05:40:20;51.63;;;19.17;;
18669;SDS011;9464;44.918;9.670;2022-12-18T05:42:50;52.43;;;18.13;;
18669;SDS011;9464;44.918;9.670;2022-12-18T05:45:18;44.57;;;18.00;;
18669;SDS011;9464;44.918;9.670;2022-12-18T05:47:47;49.10;;;18.90;;
18669;SDS011;9464;44.918;9.670;2022-12-18T05:50:15;41.97;;;18.37;;
18669;SDS011;9464;44.918;9.670;2022-12-18T05:52:44;47.97;;;18.67;;
18669;SDS011;9464;44.918;9.670;2022-12-18T05:55:12;46.50;;;18.70;;
18669;SDS011;9464;44.918;9.670;2022-12-18T05:57:41;46.37;;;20.63;;
18669;SDS011;9464;44.918;9.670;2022-12-18T06:00:11;43.83;;;20.00;;
18669;SDS011;9464;44.918;9.670;2022-12-18T06:02:40;45.27;;;18.27;;
18669;SDS011;9464;44.918;9.670;2022-12-18T06:05:09;42.77;;;18.77;;
18669;SDS011;9464;44.918;9.670;2022-12-18T06:07:37;39.67;;;17.60;;
18669;SDS011;9464;44.918;9.670;2022-12-18T06:10:06;53.63;;;19.43;;
18669;SDS011;9464;44.918;9.670;2022-12-18T06:12:34;43.27;;;19.23;;
18669;SDS011;9464;44.918;9.670;2022-12-18T06:15:04;43.57;;;18.40;;
18669;SDS011;9464;44.918;9.670;2022-12-18T06:17:34;43.83;;;19.50;;
18669;SDS011;9464;44.918;9.670;2022-12-18T06:20:03;44.83;;;19.83;;
18669;SDS011;9464;44.918;9.670;2022-12-18T06:22:33;48.97;;;19.13;;
18669;SDS011;9464;44.918;9.670;2022-12-18T06:25:02;43.57;;;17.90;;
18669;SDS011;9464;44.918;9.670;2022-12-18T06:27:33;41.53;;;18.03;;
18669;SDS011;9464;44.918;9.670;2022-12-18T06:30:01;40.00;;;17.20;;
18669;SDS011;9464;44.918;9.670;2022-12-18T06:32:30;37.97;;;16.77;;
18669;SDS011;9464;44.918;9.670;2022-12-18T06:35:00;44.53;;;18.10;;
18669;SDS011;9464;44.918;9.670;2022-12-18T06:37:28;42.83;;;16.63;;
18669;SDS011;9464;44.918;9.670;2022-12-18T06:39:58;37.83;;;17.27;;
18669;SDS011;9464;44.918;9.670;2022-12-18T06:42:28;39.77;;;17.43;;
18669;SDS011;9464;44.918;9.670;2022-12-18T06:44:56;40.63;;;16.67;;
18669;SDS011;9464;44.918;9.670;2022-12-18T06:47:25;36.77;;;16.30;;
18669;SDS011;9464;44.918;9.670;2022-12-18T06:49:53;35.17;;;16.73;;
18669;SDS011;9464;44.918;9.670;2022-12-18T06:52:23;44.43;;;16.73;;
18669;SDS011;9464;44.918;9.670;2022-12-18T06:54:51;41.57;;;17.20;;
18669;SDS011;9464;44.918;9.670;2022-12-18T06:57:19;39.20;;;15.70;;
18669;SDS011;9464;44.918;9.670;2022-12-18T06:59:48;39.40;;;16.77;;
18669;SDS011;9464;44.918;9.670;2022-12-18T07:02:16;45.00;;;17.37;;
18669;SDS011;9464;44.918;9.670;2022-12-18T07:04:45;43.80;;;16.60;;
18669;SDS011;9464;44.918;9.670;2022-12-18T07:07:13;36.03;;;16.90;;
18669;SDS011;9464;44.918;9.670;2022-12-18T07:09:43;38.47;;;16.93;;
18669;SDS011;9464;44.918;9.670;2022-12-18T07:12:12;41.97;;;16.53;;
18669;SDS011;9464;44.918;9.670;2022-12-18T07:14:40;39.57;;;16.67;;
18669;SDS011;9464;44.918;9.670;2022-12-18T07:17:08;38.53;;;16.67;;
18669;SDS011;9464;44.918;9.670;2022-12-18T07:19:37;38.93;;;17.03;;
18669;SDS011;9464;44.918;9.670;2022-12-18T07:22:05;47.93;;;17.00;;
18669;SDS011;9464;44.918;9.670;2022-12-18T07:24:34;39.27;;;16.83;;
18669;SDS011;9464;44.918;9.670;2022-12-18T07:27:04;41.47;;;17.37;;
18669;SDS011;9464;44.918;9.670;2022-12-18T07:29:33;43.63;;;17.23;;
18669;SDS011;9464;44.918;9.670;2022-12-18T07:32:01;43.87;;;18.63;;
18669;SDS011;9464;44.918;9.670;2022-12-18T07:34:30;48.07;;;18.70;;
18669;SDS011;9464;44.918;9.670;2022-12-18T07:36:58;43.07;;;16.90;;
18669;SDS011;9464;44.918;9.670;2022-12-18T07:39:27;47.50;;;18.53;;
18669;SDS011;9464;44.918;9.670;2022-12-18T07:41:55;37.70;;;17.03;;
18669;SDS011;9464;44.918;9.670;2022-12-18T07:44:42;41.07;;;17.50;;
18669;SDS011;9464;44.918;9.670;2022-12-18T07:47:11;40.43;;;16.60;;
18669;SDS011;9464;44.918;9.670;2022-12-18T07:49:39;38.80;;;16.97;;
18669;SDS011;9464;44.918;9.670;2022-12-18T07:52:07;40.43;;;16.90;;
18669;SDS011;9464;44.918;9.670;2022-12-18T07:54:38;37.10;;;16.87;;
18669;SDS011;9464;44.918;9.670;2022-12-18T07:57:07;38.53;;;17.73;;
18669;SDS011;9464;44.918;9.670;2022-12-18T07:59:57;40.63;;;17.67;;
18669;SDS011;9464;44.918;9.670;2022-12-18T08:02:25;37.67;;;16.80;;
18669;SDS011;9464;44.918;9.670;2022-12-18T08:04:54;49.23;;;18.83;;
18669;SDS011;9464;44.918;9.670;2022-12-18T08:07:22;38.93;;;17.77;;
18669;SDS011;9464;44.918;9.670;2022-12-18T08:09:51;44.33;;;18.13;;
18669;SDS011;9464;44.918;9.670;2022-12-18T08:12:19;46.03;;;18.17;;
18669;SDS011;9464;44.918;9.670;2022-12-18T08:14:48;41.23;;;17.40;;
18669;SDS011;9464;44.918;9.670;2022-12-18T08:17:18;40.80;;;17.37;;
18669;SDS011;9464;44.918;9.670;2022-12-18T08:19:47;36.60;;;16.67;;
18669;SDS011;9464;44.918;9.670;2022-12-18T08:22:16;39.10;;;18.03;;
18669;SDS011;9464;44.918;9.670;2022-12-18T08:24:45;41.13;;;17.90;;
18669;SDS011;9464;44.918;9.670;2022-12-18T08:27:13;35.17;;;15.77;;
18669;SDS011;9464;44.918;9.670;2022-12-18T08:29:57;37.30;;;17.33;;
18669;SDS011;9464;44.918;9.670;2022-12-18T08:32:27;39.17;;;18.00;;
18669;SDS011;9464;44.918;9.670;2022-12-18T08:34:56;44.10;;;17.90;;
18669;SDS011;9464;44.918;9.670;2022-12-18T08:37:24;35.47;;;18.33;;
18669;SDS011;9464;44.918;9.670;2022-12-18T08:39:53;43.27;;;18.43;;
18669;SDS011;9464;44.918;9.670;2022-12-18T08:42:21;45.37;;;21.10;;
18669;SDS011;9464;44.918;9.670;2022-12-18T08:45:08;53.23;;;24.87;;
18669;SDS011;9464;44.918;9.670;2022-12-18T08:47:38;41.60;;;20.13;;
18669;SDS011;9464;44.918;9.670;2022-12-18T08:50:06;35.17;;;19.10;;
18669;SDS011;9464;44.918;9.670;2022-12-18T08:52:35;36.03;;;19.07;;
18669;SDS011;9464;44.918;9.670;2022-12-18T08:55:04;36.30;;;18.33;;
18669;SDS011;9464;44.918;9.670;2022-12-18T08:57:32;38.13;;;19.67;;
18669;SDS011;9464;44.918;9.670;2022-12-18T09:00:01;35.97;;;18.60;;
18669;SDS011;9464;44.918;9.670;2022-12-18T09:02:29;40.23;;;18.37;;
18669;SDS011;9464;44.918;9.670;2022-12-18T09:04:59;36.00;;;17.93;;
18669;SDS011;9464;44.918;9.670;2022-12-18T09:07:28;40.23;;;18.83;;
18669;SDS011;9464;44.918;9.670;2022-12-18T09:09:56;35.03;;;17.87;;
18669;SDS011;9464;44.918;9.670;2022-12-18T09:12:25;38.53;;;17.20;;
18669;SDS011;9464;44.918;9.670;2022-12-18T09:14:53;40.27;;;17.53;;
18669;SDS011;9464;44.918;9.670;2022-12-18T09:17:22;34.60;;;16.93;;
18669;SDS011;9464;44.918;9.670;2022-12-18T09:19:51;38.43;;;17.50;;
18669;SDS011;9464;44.918;9.670;2022-12-18T09:22:20;33.83;;;17.30;;
18669;SDS011;9464;44.918;9.670;2022-12-18T09:24:49;40.43;;;18.50;;
18669;SDS011;9464;44.918;9.670;2022-12-18T09:27:17;87.23;;;40.27;;
18669;SDS011;9464;44.918;9.670;2022-12-18T09:29:46;50.37;;;24.37;;
18669;SDS011;9464;44.918;9.670;2022-12-18T09:32:14;51.97;;;26.10;;
18669;SDS011;9464;44.918;9.670;2022-12-18T09:34:47;39.60;;;20.77;;
18669;SDS011;9464;44.918;9.670;2022-12-18T09:37:16;46.33;;;18.80;;
18669;SDS011;9464;44.918;9.670;2022-12-18T09:39:46;37.40;;;17.40;;
18669;SDS011;9464;44.918;9.670;2022-12-18T09:42:17;34.47;;;16.43;;
18669;SDS011;9464;44.918;9.670;2022-12-18T09:44:49;40.00;;;18.47;;
18669;SDS011;9464;44.918;9.670;2022-12-18T09:47:18;38.57;;;16.73;;
18669;SDS011;9464;44.918;9.670;2022-12-18T09:49:50;30.87;;;16.13;;
18669;SDS011;9464;44.918;9.670;2022-12-18T09:52:21;32.37;;;15.90;;
18669;SDS011;9464;44.918;9.670;2022-12-18T09:54:53;31.83;;;15.47;;
18669;SDS011;9464;44.918;9.670;2022-12-18T09:57:23;30.67;;;16.00;;
18669;SDS011;9464;44.918;9.670;2022-12-18T09:59:53;35.53;;;15.30;;
18669;SDS011;9464;44.918;9.670;2022-12-18T10:02:23;36.90;;;17.60;;
18669;SDS011;9464;44.918;9.670;2022-12-18T10:04:55;35.57;;;17.37;;
18669;SDS011;9464;44.918;9.670;2022-12-18T10:07:29;33.60;;;17.27;;
18669;SDS011;9464;44.918;9.670;2022-12-18T10:10:03;39.83;;;18.90;;
18669;SDS011;9464;44.918;9.670;2022-12-18T10:12:36;35.77;;;17.10;;
18669;SDS011;9464;44.918;9.670;2022-12-18T10:15:07;38.90;;;18.27;;
18669;SDS011;9464;44.918;9.670;2022-12-18T10:17:41;35.63;;;16.40;;
18669;SDS011;9464;44.918;9.670;2022-12-18T10:20:13;36.03;;;17.23;;
18669;SDS011;9464;44.918;9.670;2022-12-18T10:22:47;35.03;;;16.90;;
18669;SDS011;9464;44.918;9.670;2022-12-18T10:25:21;37.67;;;17.73;;
18669;SDS011;9464;44.918;9.670;2022-12-18T10:27:51;38.80;;;18.57;;
18669;SDS011;9464;44.918;9.670;2022-12-18T10:30:22;36.53;;;18.77;;
18669;SDS011;9464;44.918;9.670;2022-12-18T10:32:51;40.23;;;17.57;;
18669;SDS011;9464;44.918;9.670;2022-12-18T10:35:21;38.07;;;18.80;;
18669;SDS011;9464;44.918;9.670;2022-12-18T10:37:59;36.87;;;17.77;;
18669;SDS011;9464;44.918;9.670;2022-12-18T10:40:30;38.40;;;18.70;;
18669;SDS011;9464;44.918;9.670;2022-12-18T10:43:05;40.47;;;18.63;;
18669;SDS011;9464;44.918;9.670;2022-12-18T10:45:34;38.03;;;18.07;;
18669;SDS011;9464;44.918;9.670;2022-12-18T10:48:03;30.03;;;16.13;;
18669;SDS011;9464;44.918;9.670;2022-12-18T10:50:33;33.47;;;17.30;;
18669;SDS011;9464;44.918;9.670;2022-12-18T10:53:22;39.37;;;17.57;;
18669;SDS011;9464;44.918;9.670;2022-12-18T10:55:53;36.60;;;17.03;;
18669;SDS011;9464;44.918;9.670;2022-12-18T10:58:23;35.70;;;16.93;;
18669;SDS011;9464;44.918;9.670;2022-12-18T11:01:03;41.60;;;17.67;;
18669;SDS011;9464;44.918;9.670;2022-12-18T11:03:32;35.83;;;18.27;;
18669;SDS011;9464;44.918;9.670;2022-12-18T11:06:03;33.77;;;16.63;;
18669;SDS011;9464;44.918;9.670;2022-12-18T11:08:32;40.17;;;18.60;;
18669;SDS011;9464;44.918;9.670;2022-12-18T11:11:02;46.00;;;19.07;;
18669;SDS011;9464;44.918;9.670;2022-12-18T11:13:32;41.53;;;18.00;;
18669;SDS011;9464;44.918;9.670;2022-12-18T11:16:00;52.80;;;20.90;;
18669;SDS011;9464;44.918;9.670;2022-12-18T11:18:29;48.03;;;20.17;;
18669;SDS011;9464;44.918;9.670;2022-12-18T11:20:58;46.07;;;20.07;;
18669;SDS011;9464;44.918;9.670;2022-12-18T11:23:27;49.07;;;18.87;;
18669;SDS011;9464;44.918;9.670;2022-12-18T11:25:57;51.37;;;21.70;;
18669;SDS011;9464;44.918;9.670;2022-12-18T11:28:28;50.90;;;21.90;;
18669;SDS011;9464;44.918;9.670;2022-12-18T11:34:00;43.63;;;20.07;;
18669;SDS011;9464;44.918;9.670;2022-12-18T11:36:49;44.13;;;18.57;;
18669;SDS011;9464;44.918;9.670;2022-12-18T11:39:18;39.17;;;17.80;;
18669;SDS011;9464;44.918;9.670;2022-12-18T11:41:49;47.23;;;20.37;;
18669;SDS011;9464;44.918;9.670;2022-12-18T11:44:42;44.53;;;19.60;;
18669;SDS011;9464;44.918;9.670;2022-12-18T11:47:13;41.93;;;18.23;;
18669;SDS011;9464;44.918;9.670;2022-12-18T11:49:43;41.13;;;18.33;;
18669;SDS011;9464;44.918;9.670;2022-12-18T11:52:14;44.63;;;20.17;;
18669;SDS011;9464;44.918;9.670;2022-12-18T11:54:43;36.43;;;17.40;;
18669;SDS011;9464;44.918;9.670;2022-12-18T11:57:14;37.77;;;18.23;;
18669;SDS011;9464;44.918;9.670;2022-12-18T11:59:47;39.67;;;18.70;;
18669;SDS011;9464;44.918;9.670;2022-12-18T12:02:27;41.93;;;18.53;;
18669;SDS011;9464;44.918;9.670;2022-12-18T12:05:04;37.67;;;17.00;;
18669;SDS011;9464;44.918;9.670;2022-12-18T12:07:36;38.80;;;17.53;;
18669;SDS011;9464;44.918;9.670;2022-12-18T12:10:14;34.13;;;17.53;;
18669;SDS011;9464;44.918;9.670;2022-12-18T12:12:50;33.33;;;15.90;;
18669;SDS011;9464;44.918;9.670;2022-12-18T12:15:25;31.43;;;15.93;;
18669;SDS011;9464;44.918;9.670;2022-12-18T12:17:58;33.03;;;16.13;;
18669;SDS011;9464;44.918;9.670;2022-12-18T12:20:39;33.30;;;15.53;;
18669;SDS011;9464;44.918;9.670;2022-12-18T12:23:12;38.53;;;18.13;;
18669;SDS011;9464;44.918;9.670;2022-12-18T12:25:44;37.40;;;17.77;;
18669;SDS011;9464;44.918;9.670;2022-12-18T12:28:17;33.00;;;14.57;;
18669;SDS011;9464;44.918;9.670;2022-12-18T12:30:51;32.67;;;15.87;;
18669;SDS011;9464;44.918;9.670;2022-12-18T12:33:27;30.10;;;15.60;;
18669;SDS011;9464;44.918;9.670;2022-12-18T12:36:02;30.87;;;15.60;;
18669;SDS011;9464;44.918;9.670;2022-12-18T12:38:34;31.50;;;15.43;;
18669;SDS011;9464;44.918;9.670;2022-12-18T12:41:05;29.97;;;15.00;;
18669;SDS011;9464;44.918;9.670;2022-12-18T12:43:55;34.93;;;16.47;;
18669;SDS011;9464;44.918;9.670;2022-12-18T12:46:24;34.10;;;16.00;;
18669;SDS011;9464;44.918;9.670;2022-12-18T12:48:54;36.17;;;16.30;;
18669;SDS011;9464;44.918;9.670;2022-12-18T12:51:25;39.57;;;16.57;;
18669;SDS011;9464;44.918;9.670;2022-12-18T12:53:54;34.73;;;16.07;;
18669;SDS011;9464;44.918;9.670;2022-12-18T12:56:26;32.10;;;16.67;;
18669;SDS011;9464;44.918;9.670;2022-12-18T12:58:58;33.70;;;16.63;;
18669;SDS011;9464;44.918;9.670;2022-12-18T13:01:34;37.93;;;17.37;;
18669;SDS011;9464;44.918;9.670;2022-12-18T13:04:08;35.20;;;16.60;;
18669;SDS011;9464;44.918;9.670;2022-12-18T13:06:43;34.00;;;17.30;;
18669;SDS011;9464;44.918;9.670;2022-12-18T13:09:14;30.60;;;15.67;;
18669;SDS011;9464;44.918;9.670;2022-12-18T13:11:43;38.60;;;17.43;;
18669;SDS011;9464;44.918;9.670;2022-12-18T13:14:31;35.60;;;15.47;;
18669;SDS011;9464;44.918;9.670;2022-12-18T13:17:17;33.07;;;15.63;;
18669;SDS011;9464;44.918;9.670;2022-12-18T13:20:02;33.70;;;15.93;;
18669;SDS011;9464;44.918;9.670;2022-12-18T13:22:34;33.23;;;16.77;;
18669;SDS011;9464;44.918;9.670;2022-12-18T13:25:04;32.40;;;16.80;;
18669;SDS011;9464;44.918;9.670;2022-12-18T13:28:02;35.57;;;16.27;;
18669;SDS011;9464;44.918;9.670;2022-12-18T13:30:45;31.27;;;15.13;;
18669;SDS011;9464;44.918;9.670;2022-12-18T13:36:37;29.03;;;14.53;;
18669;SDS011;9464;44.918;9.670;2022-12-18T13:39:20;32.60;;;16.13;;
18669;SDS011;9464;44.918;9.670;2022-12-18T13:45:35;35.47;;;16.77;;
18669;SDS011;9464;44.918;9.670;2022-12-18T13:48:12;31.03;;;15.13;;
18669;SDS011;9464;44.918;9.670;2022-12-18T13:50:42;29.43;;;15.07;;
18669;SDS011;9464;44.918;9.670;2022-12-18T13:53:15;31.67;;;15.50;;
18669;SDS011;9464;44.918;9.670;2022-12-18T13:55:47;39.27;;;18.33;;
18669;SDS011;9464;44.918;9.670;2022-12-18T13:58:17;39.37;;;17.10;;
18669;SDS011;9464;44.918;9.670;2022-12-18T14:00:46;29.47;;;15.00;;
18669;SDS011;9464;44.918;9.670;2022-12-18T14:03:19;29.20;;;14.70;;
18669;SDS011;9464;44.918;9.670;2022-12-18T14:05:52;30.33;;;14.87;;
18669;SDS011;9464;44.918;9.670;2022-12-18T14:08:25;30.50;;;14.93;;
18669;SDS011;9464;44.918;9.670;2022-12-18T14:10:57;28.10;;;14.67;;
18669;SDS011;9464;44.918;9.670;2022-12-18T14:13:26;26.17;;;14.13;;
18669;SDS011;9464;44.918;9.670;2022-12-18T14:15:56;33.53;;;15.10;;
18669;SDS011;9464;44.918;9.670;2022-12-18T14:18:29;31.40;;;15.30;;
18669;SDS011;9464;44.918;9.670;2022-12-18T14:21:00;30.00;;;14.03;;
18669;SDS011;9464;44.918;9.670;2022-12-18T14:23:31;34.30;;;15.27;;
18669;SDS011;9464;44.918;9.670;2022-12-18T14:26:00;29.70;;;15.47;;
18669;SDS011;9464;44.918;9.670;2022-12-18T14:28:31;25.90;;;14.67;;
18669;SDS011;9464;44.918;9.670;2022-12-18T14:31:00;29.77;;;15.13;;
18669;SDS011;9464;44.918;9.670;2022-12-18T14:33:28;28.10;;;14.60;;
18669;SDS011;9464;44.918;9.670;2022-12-18T14:35:57;29.27;;;14.87;;
18669;SDS011;9464;44.918;9.670;2022-12-18T14:38:28;30.17;;;14.80;;
18669;SDS011;9464;44.918;9.670;2022-12-18T14:41:00;28.63;;;14.37;;
18669;SDS011;9464;44.918;9.670;2022-12-18T14:43:31;28.13;;;15.20;;
18669;SDS011;9464;44.918;9.670;2022-12-18T14:45:59;26.47;;;14.20;;
18669;SDS011;9464;44.918;9.670;2022-12-18T14:48:36;29.20;;;15.20;;
18669;SDS011;9464;44.918;9.670;2022-12-18T14:51:06;33.10;;;15.07;;
18669;SDS011;9464;44.918;9.670;2022-12-18T14:53:36;30.70;;;15.17;;
18669;SDS011;9464;44.918;9.670;2022-12-18T14:56:17;35.77;;;14.73;;
18669;SDS011;9464;44.918;9.670;2022-12-18T14:58:46;27.30;;;13.97;;
18669;SDS011;9464;44.918;9.670;2022-12-18T15:01:19;33.07;;;14.87;;
18669;SDS011;9464;44.918;9.670;2022-12-18T15:03:49;32.87;;;15.73;;
18669;SDS011;9464;44.918;9.670;2022-12-18T15:06:24;28.63;;;13.63;;